createdAt,value
2023-03-26T00:00:54.362Z,4.22
2023-03-26T00:03:21.315Z,3.75
2023-03-26T00:05:48.474Z,3.33
2023-03-26T00:08:16.250Z,3.33
2023-03-26T00:10:43.452Z,3.10
2023-03-26T00:13:10.468Z,3.17
2023-03-26T00:15:37.619Z,3.05
2023-03-26T00:18:04.646Z,3.28
2023-03-26T00:20:35.010Z,3.35
2023-03-26T00:23:02.001Z,3.15
2023-03-26T00:25:29.026Z,3.53
2023-03-26T00:27:56.039Z,3.38
2023-03-26T00:30:23.288Z,3.20
2023-03-26T00:32:53.908Z,3.60
2023-03-26T00:35:22.540Z,2.90
2023-03-26T00:37:51.644Z,3.10
2023-03-26T00:40:18.791Z,2.90
2023-03-26T00:42:45.784Z,2.60
2023-03-26T00:45:12.745Z,2.58
2023-03-26T00:47:40.620Z,3.50
2023-03-26T00:50:15.614Z,2.75
2023-03-26T00:52:46.461Z,2.55
2023-03-26T00:55:13.475Z,3.00
2023-03-26T00:57:40.862Z,2.47
2023-03-26T01:00:13.617Z,2.97
2023-03-26T01:02:40.909Z,2.50
2023-03-26T01:05:53.377Z,3.10
2023-03-26T01:08:23.405Z,3.25
2023-03-26T01:10:53.419Z,2.55
2023-03-26T01:15:51.367Z,3.92
2023-03-26T01:18:22.084Z,2.80
2023-03-26T01:20:49.909Z,3.80
2023-03-26T01:23:21.588Z,3.15
2023-03-26T01:25:54.287Z,3.42
2023-03-26T01:28:21.358Z,3.05
2023-03-26T01:30:58.798Z,3.38
2023-03-26T01:33:36.714Z,3.38
2023-03-26T01:36:14.877Z,2.55
2023-03-26T01:38:46.942Z,4.22
2023-03-26T01:41:40.408Z,4.20
2023-03-26T01:44:11.721Z,3.22
2023-03-26T01:46:38.785Z,2.88
2023-03-26T01:49:06.599Z,3.17
2023-03-26T01:51:35.050Z,3.75
2023-03-26T01:54:04.077Z,3.08
2023-03-26T01:56:50.029Z,3.90
2023-03-26T01:59:23.664Z,2.90
2023-03-26T02:02:01.401Z,2.55
2023-03-26T02:04:55.840Z,3.42
2023-03-26T02:07:38.152Z,2.88
2023-03-26T02:10:18.542Z,2.78
2023-03-26T02:12:45.571Z,2.58
2023-03-26T02:15:12.676Z,2.55
2023-03-26T02:17:40.561Z,2.72
2023-03-26T02:20:10.175Z,3.03
2023-03-26T02:22:41.179Z,3.42
2023-03-26T02:25:11.307Z,2.53
2023-03-26T02:27:38.936Z,2.92
2023-03-26T02:30:10.870Z,2.92
2023-03-26T02:32:41.163Z,2.70
2023-03-26T02:35:08.611Z,2.70
2023-03-26T02:37:35.947Z,2.88
2023-03-26T02:40:12.098Z,2.55
2023-03-26T02:42:42.106Z,2.00
2023-03-26T02:45:09.552Z,2.38
2023-03-26T02:47:55.159Z,2.22
2023-03-26T02:50:40.787Z,2.10
2023-03-26T02:53:37.679Z,2.10
2023-03-26T02:56:23.121Z,1.60
2023-03-26T02:59:06.232Z,2.00
2023-03-26T03:01:35.284Z,1.90
2023-03-26T03:04:04.470Z,1.90
2023-03-26T03:06:38.592Z,2.33
2023-03-26T03:09:06.793Z,1.88
2023-03-26T03:11:37.010Z,2.70
2023-03-26T03:14:05.426Z,1.88
2023-03-26T03:16:33.556Z,1.73
2023-03-26T03:19:06.900Z,1.48
2023-03-26T03:21:42.916Z,2.20
2023-03-26T03:24:11.770Z,1.70
2023-03-26T03:26:47.818Z,1.73
2023-03-26T03:29:35.065Z,2.10
2023-03-26T03:32:23.312Z,1.55
2023-03-26T03:34:53.421Z,1.65
2023-03-26T03:37:21.022Z,1.50
2023-03-26T03:39:52.343Z,2.03
2023-03-26T03:42:22.098Z,1.52
2023-03-26T03:47:38.846Z,1.42
2023-03-26T03:50:06.736Z,1.48
2023-03-26T03:52:34.184Z,1.30
2023-03-26T03:55:01.299Z,1.70
2023-03-26T03:57:46.955Z,1.90
2023-03-26T04:00:19.073Z,1.20
2023-03-26T04:02:58.128Z,1.27
2023-03-26T04:05:27.783Z,1.17
2023-03-26T04:07:54.774Z,1.05
2023-03-26T04:10:27.506Z,1.27
2023-03-26T04:13:13.274Z,1.08
2023-03-26T04:15:57.014Z,1.42
2023-03-26T04:18:26.456Z,1.40
2023-03-26T04:20:55.830Z,1.38
2023-03-26T04:23:29.221Z,0.93
2023-03-26T04:26:04.383Z,0.85
2023-03-26T04:28:53.529Z,1.73
2023-03-26T04:31:29.371Z,1.10
2023-03-26T04:34:05.719Z,0.95
2023-03-26T04:36:35.722Z,1.42
2023-03-26T04:39:05.088Z,0.90
2023-03-26T04:41:52.057Z,0.70
2023-03-26T04:47:02.963Z,0.80
2023-03-26T04:49:35.776Z,0.70
2023-03-26T04:52:02.947Z,0.60
2023-03-26T04:54:48.383Z,0.75
2023-03-26T04:57:27.281Z,0.77
2023-03-26T05:00:00.915Z,0.50
2023-03-26T05:02:32.888Z,0.75
2023-03-26T05:05:02.968Z,0.90
2023-03-26T05:07:31.707Z,0.80
2023-03-26T05:10:03.564Z,0.50
2023-03-26T05:12:59.991Z,1.08
2023-03-26T05:15:31.130Z,0.55
2023-03-26T05:17:58.260Z,0.65
2023-03-26T05:20:30.378Z,0.70
2023-03-26T05:22:57.734Z,0.90
2023-03-26T05:25:36.171Z,0.60
2023-03-26T05:28:06.515Z,1.33
2023-03-26T05:30:44.824Z,0.80
2023-03-26T05:33:12.056Z,0.70
2023-03-26T05:35:46.438Z,0.70
2023-03-26T05:38:13.598Z,0.80
2023-03-26T05:40:40.554Z,0.65
2023-03-26T05:43:08.787Z,0.90
2023-03-26T05:45:39.369Z,0.77
2023-03-26T05:48:26.605Z,0.65
2023-03-26T05:50:55.416Z,0.50
2023-03-26T05:53:24.309Z,0.77
2023-03-26T05:56:10.100Z,0.60
2023-03-26T05:58:56.664Z,0.80
2023-03-26T06:01:51.052Z,0.77
2023-03-26T06:04:46.957Z,1.13
2023-03-26T06:07:34.282Z,0.80
2023-03-26T06:10:20.428Z,0.80
2023-03-26T06:12:47.868Z,0.80
2023-03-26T06:15:14.931Z,0.70
2023-03-26T06:17:53.982Z,0.50
2023-03-26T06:20:36.306Z,0.82
2023-03-26T06:23:09.715Z,0.90
2023-03-26T06:26:02.622Z,0.82
2023-03-26T06:28:48.301Z,0.50
2023-03-26T06:31:35.636Z,0.50
2023-03-26T06:34:21.065Z,0.60
2023-03-26T06:36:49.023Z,0.77
2023-03-26T06:39:16.364Z,0.73
2023-03-26T06:42:21.491Z,0.70
2023-03-26T06:45:27.907Z,0.73
2023-03-26T06:48:13.408Z,0.70
2023-03-26T06:50:49.361Z,0.77
2023-03-26T06:53:35.053Z,0.70
2023-03-26T06:56:16.916Z,0.88
2023-03-26T06:59:04.249Z,0.60
2023-03-26T07:01:31.417Z,0.70
2023-03-26T07:04:16.910Z,0.80
2023-03-26T07:07:02.417Z,0.80
2023-03-26T07:09:48.530Z,0.70
2023-03-26T07:12:34.075Z,0.70
2023-03-26T07:15:19.682Z,0.90
2023-03-26T07:18:10.077Z,1.00
2023-03-26T07:20:39.220Z,0.70
2023-03-26T07:23:07.503Z,0.60
2023-03-26T07:25:52.915Z,0.70
2023-03-26T07:28:32.948Z,0.60
2023-03-26T07:31:28.365Z,0.80
2023-03-26T07:34:21.515Z,1.30
2023-03-26T07:37:23.335Z,0.60
2023-03-26T07:40:42.318Z,0.60
2023-03-26T07:43:46.459Z,0.50
2023-03-26T07:46:39.436Z,0.73
2023-03-26T07:49:30.445Z,0.60
2023-03-26T07:52:22.165Z,0.60
2023-03-26T07:55:25.154Z,0.70
2023-03-26T07:58:30.602Z,0.82
2023-03-26T08:01:48.137Z,0.85
2023-03-26T08:04:36.192Z,0.80
2023-03-26T08:07:39.857Z,0.90
2023-03-26T08:10:26.809Z,0.77
2023-03-26T08:13:16.342Z,0.60
2023-03-26T08:16:10.473Z,0.77
2023-03-26T08:19:25.541Z,0.80
2023-03-26T08:21:54.453Z,0.60
2023-03-26T08:24:43.625Z,0.90
2023-03-26T08:27:21.597Z,0.70
2023-03-26T08:30:02.429Z,0.90
2023-03-26T08:32:29.633Z,1.10
2023-03-26T08:34:57.726Z,1.10
2023-03-26T08:37:24.846Z,0.70
2023-03-26T08:39:51.978Z,0.90
2023-03-26T08:42:41.559Z,0.57
2023-03-26T08:45:29.117Z,0.70
2023-03-26T08:48:05.003Z,0.80
2023-03-26T08:50:55.994Z,0.60
2023-03-26T08:53:53.611Z,1.08
2023-03-26T08:56:38.776Z,0.82
2023-03-26T08:59:17.722Z,0.60
2023-03-26T09:02:06.896Z,1.35
2023-03-26T09:05:04.791Z,0.90
2023-03-26T09:08:16.095Z,0.80
2023-03-26T09:11:06.719Z,0.63
2023-03-26T09:14:01.758Z,0.80
2023-03-26T09:17:03.887Z,0.70
2023-03-26T09:19:52.785Z,0.60
2023-03-26T09:23:14.005Z,0.85
2023-03-26T09:26:00.950Z,0.70
2023-03-26T09:28:39.846Z,0.80
2023-03-26T09:31:33.379Z,0.60
2023-03-26T09:34:21.890Z,0.60
2023-03-26T09:36:54.787Z,0.70
2023-03-26T09:39:30.524Z,0.80
2023-03-26T09:42:08.554Z,0.85
2023-03-26T09:44:50.838Z,0.90
2023-03-26T09:47:48.457Z,0.90
2023-03-26T09:50:36.656Z,0.80
2023-03-26T09:53:18.509Z,0.90
2023-03-26T09:56:16.216Z,0.88
2023-03-26T09:59:12.339Z,0.73
2023-03-26T10:01:40.728Z,0.80
2023-03-26T10:04:27.622Z,1.00
2023-03-26T10:07:20.550Z,0.93
2023-03-26T10:09:51.576Z,1.00
2023-03-26T10:12:33.785Z,0.95
2023-03-26T10:15:25.326Z,1.00
2023-03-26T10:18:02.400Z,1.00
2023-03-26T10:20:34.066Z,0.90
2023-03-26T10:23:35.912Z,0.95
2023-03-26T10:26:29.047Z,0.90
2023-03-26T10:29:04.725Z,0.90
2023-03-26T10:32:01.405Z,0.90
2023-03-26T10:34:50.036Z,1.00
2023-03-26T10:37:30.219Z,1.17
2023-03-26T10:40:21.170Z,1.08
2023-03-26T10:43:14.480Z,1.00
2023-03-26T10:45:53.368Z,1.15
2023-03-26T10:48:42.794Z,1.10
2023-03-26T10:51:45.131Z,1.20
2023-03-26T10:54:35.109Z,0.90
2023-03-26T10:59:30.870Z,0.90
2023-03-26T11:02:30.004Z,1.05
2023-03-26T11:05:20.571Z,1.00
2023-03-26T11:07:54.008Z,0.95
2023-03-26T11:10:36.365Z,0.90
2023-03-26T11:13:07.008Z,1.00
2023-03-26T11:15:40.675Z,0.85
2023-03-26T11:18:41.295Z,0.98
2023-03-26T11:21:27.543Z,0.80
2023-03-26T11:24:13.626Z,0.70
2023-03-26T11:26:49.541Z,0.70
2023-03-26T11:29:30.952Z,0.70
2023-03-26T11:32:13.956Z,0.70
2023-03-26T11:34:58.579Z,0.80
2023-03-26T11:37:38.998Z,0.60
2023-03-26T11:40:12.740Z,0.90
2023-03-26T11:42:39.757Z,0.80
2023-03-26T11:45:07.756Z,0.60
2023-03-26T11:47:39.068Z,0.70
2023-03-26T11:50:07.287Z,0.80
2023-03-26T11:52:34.283Z,0.90
2023-03-26T11:55:01.329Z,0.68
2023-03-26T11:57:33.516Z,0.70
2023-03-26T12:00:21.360Z,0.80
2023-03-26T12:02:48.719Z,0.85
2023-03-26T12:05:20.918Z,0.60
2023-03-26T12:07:51.423Z,0.95
2023-03-26T12:10:35.266Z,0.70
2023-03-26T12:13:06.696Z,0.60
2023-03-26T12:15:33.845Z,0.60
2023-03-26T12:18:20.132Z,0.70
2023-03-26T12:20:49.539Z,0.65
2023-03-26T12:23:35.407Z,0.70
2023-03-26T12:26:14.501Z,0.60
2023-03-26T12:28:48.360Z,0.60
2023-03-26T12:31:19.523Z,0.40
2023-03-26T12:34:03.276Z,0.55
2023-03-26T12:36:33.406Z,0.60
2023-03-26T12:39:16.165Z,0.40
2023-03-26T12:44:51.043Z,0.50
2023-03-26T12:44:56.209Z,1.25
2023-03-26T12:47:59.217Z,1.00
2023-03-26T12:50:17.986Z,1.10
2023-03-26T12:53:12.670Z,1.10
2023-03-26T12:55:48.825Z,1.08
2023-03-26T12:59:11.960Z,1.23
2023-03-26T13:01:54.583Z,1.00
2023-03-26T13:04:30.459Z,1.23
2023-03-26T13:07:20.924Z,1.30
2023-03-26T13:09:52.829Z,1.83
2023-03-26T13:12:59.668Z,1.52
2023-03-26T13:15:39.156Z,1.73
2023-03-26T13:18:32.481Z,1.60
2023-03-26T13:21:05.075Z,1.50
2023-03-26T13:23:52.048Z,1.80
2023-03-26T13:26:50.508Z,1.98
2023-03-26T13:29:29.924Z,2.47
2023-03-26T13:32:06.088Z,2.40
2023-03-26T13:34:54.824Z,2.22
2023-03-26T13:37:44.775Z,2.25
2023-03-26T13:40:22.505Z,2.25
2023-03-26T13:42:58.502Z,2.10
2023-03-26T13:45:59.985Z,2.10
2023-03-26T13:48:30.441Z,1.80
2023-03-26T13:51:16.737Z,1.90
2023-03-26T13:54:07.406Z,2.63
2023-03-26T13:56:38.523Z,2.17
2023-03-26T13:59:27.464Z,2.10
2023-03-26T14:01:57.459Z,1.90
2023-03-26T14:07:08.875Z,2.55
2023-03-26T14:09:46.824Z,2.13
2023-03-26T14:12:22.053Z,2.38
2023-03-26T14:14:57.044Z,1.98
2023-03-26T14:17:43.169Z,2.20
2023-03-26T14:20:40.166Z,1.83
2023-03-26T14:23:10.227Z,3.78
2023-03-26T14:28:32.524Z,2.08
2023-03-26T14:31:30.661Z,2.72
2023-03-26T14:34:05.320Z,2.40
2023-03-26T14:36:53.393Z,1.95
2023-03-26T14:39:23.791Z,2.30
2023-03-26T14:41:52.088Z,2.50
2023-03-26T14:44:48.048Z,2.65
2023-03-26T14:47:23.370Z,3.00
2023-03-26T14:49:59.195Z,2.08
2023-03-26T14:52:30.169Z,2.75
2023-03-26T14:54:58.253Z,3.45
2023-03-26T14:57:28.259Z,1.52
2023-03-26T14:59:58.054Z,2.70
2023-03-26T15:03:02.550Z,2.10
2023-03-26T15:06:15.583Z,1.98
2023-03-26T15:09:07.693Z,2.72
2023-03-26T15:11:40.319Z,1.83
2023-03-26T15:14:36.629Z,2.92
2023-03-26T15:17:41.567Z,1.92
2023-03-26T15:20:21.035Z,1.95
2023-03-26T15:22:54.147Z,1.77
2023-03-26T15:25:54.589Z,1.90
2023-03-26T15:28:43.257Z,2.28
2023-03-26T15:31:48.042Z,2.67
2023-03-26T15:34:24.044Z,1.92
2023-03-26T15:37:00.512Z,2.45
2023-03-26T15:39:59.761Z,1.80
2023-03-26T15:42:53.883Z,1.98
2023-03-26T15:45:26.793Z,2.25
2023-03-26T15:48:20.013Z,2.17
2023-03-26T15:51:09.963Z,1.48
2023-03-26T15:54:07.596Z,1.67
2023-03-26T15:56:53.223Z,1.52
2023-03-26T15:59:42.473Z,1.60
2023-03-26T16:02:20.027Z,1.53
2023-03-26T16:04:54.774Z,1.40
2023-03-26T16:07:25.042Z,1.52
2023-03-26T16:10:28.438Z,1.90
2023-03-26T16:13:34.186Z,2.08
2023-03-26T16:16:04.422Z,1.20
2023-03-26T16:18:36.061Z,1.95
2023-03-26T16:21:37.264Z,1.90
2023-03-26T16:24:07.504Z,2.15
2023-03-26T16:26:43.736Z,2.38
2023-03-26T16:29:22.863Z,1.80
2023-03-26T16:32:15.896Z,2.15
2023-03-26T16:34:58.431Z,1.40
2023-03-26T16:37:43.988Z,1.52
2023-03-26T16:40:17.450Z,1.77
2023-03-26T16:42:47.119Z,1.50
2023-03-26T16:45:26.322Z,1.50
2023-03-26T16:48:01.748Z,1.50
2023-03-26T16:51:03.967Z,1.30
2023-03-26T16:53:42.939Z,1.25
2023-03-26T16:56:22.573Z,1.35
2023-03-26T16:59:00.516Z,1.13
2023-03-26T17:01:43.749Z,1.30
2023-03-26T17:04:23.718Z,1.38
2023-03-26T17:07:18.433Z,1.13
2023-03-26T17:10:14.557Z,1.33
2023-03-26T17:12:44.548Z,1.75
2023-03-26T17:15:27.336Z,1.35
2023-03-26T17:18:18.832Z,1.13
2023-03-26T17:21:16.373Z,1.23
2023-03-26T17:24:04.296Z,1.25
2023-03-26T17:26:52.382Z,1.35
2023-03-26T17:29:22.443Z,1.38
2023-03-26T17:34:38.416Z,0.90
2023-03-26T17:37:09.902Z,1.58
2023-03-26T17:39:39.994Z,1.30
2023-03-26T17:44:50.886Z,1.45
2023-03-26T17:47:32.891Z,1.40
2023-03-26T17:50:07.835Z,1.40
2023-03-26T17:52:57.728Z,1.25
2023-03-26T17:55:32.561Z,1.08
2023-03-26T17:58:01.275Z,1.02
2023-03-26T18:00:44.838Z,1.20
2023-03-26T18:03:18.345Z,0.95
2023-03-26T18:05:45.305Z,1.00
2023-03-26T18:08:29.189Z,1.30
2023-03-26T18:11:13.370Z,1.10
2023-03-26T18:13:44.889Z,1.17
2023-03-26T18:16:44.637Z,1.40
2023-03-26T18:19:19.598Z,1.58
2023-03-26T18:21:50.440Z,1.13
2023-03-26T18:24:31.573Z,1.67
2023-03-26T18:27:05.906Z,1.77
2023-03-26T18:29:35.387Z,1.70
2023-03-26T18:32:14.301Z,1.80
2023-03-26T18:34:50.168Z,1.95
2023-03-26T18:37:34.443Z,1.30
2023-03-26T18:40:16.832Z,1.15
2023-03-26T18:42:52.480Z,1.55
2023-03-26T18:45:32.865Z,1.25
2023-03-26T18:48:10.150Z,1.40
2023-03-26T18:50:39.196Z,1.65
2023-03-26T18:53:07.302Z,1.60
2023-03-26T18:55:39.531Z,1.13
2023-03-26T18:58:33.563Z,1.30
2023-03-26T19:01:20.248Z,2.03
2023-03-26T19:03:51.126Z,1.13
2023-03-26T19:06:18.118Z,1.25
2023-03-26T19:08:45.694Z,1.35
2023-03-26T19:11:12.755Z,1.40
2023-03-26T19:13:43.108Z,1.15
2023-03-26T19:16:21.407Z,2.15
2023-03-26T19:18:48.454Z,1.27
2023-03-26T19:21:15.775Z,1.40
2023-03-26T19:23:42.880Z,1.70
2023-03-26T19:26:10.468Z,1.75
2023-03-26T19:28:38.293Z,1.13
2023-03-26T19:31:10.691Z,1.65
2023-03-26T19:33:39.942Z,1.35
2023-03-26T19:36:13.102Z,1.27
2023-03-26T19:38:44.778Z,1.33
2023-03-26T19:41:31.202Z,1.20
2023-03-26T19:44:03.270Z,1.73
2023-03-26T19:46:34.224Z,1.40
2023-03-26T19:49:28.555Z,1.73
2023-03-26T19:52:11.946Z,1.80
2023-03-26T19:55:10.275Z,2.00
2023-03-26T19:57:38.105Z,1.83
2023-03-26T20:00:13.420Z,1.75
2023-03-26T20:02:42.510Z,1.55
2023-03-26T20:05:26.062Z,1.45
2023-03-26T20:07:54.555Z,1.70
2023-03-26T20:10:21.513Z,1.40
2023-03-26T20:12:48.677Z,1.42
2023-03-26T20:15:22.780Z,1.20
2023-03-26T20:17:52.601Z,1.20
2023-03-26T20:20:19.876Z,1.48
2023-03-26T20:22:47.222Z,1.40
2023-03-26T20:25:29.949Z,1.70
2023-03-26T20:27:59.474Z,1.38
2023-03-26T20:30:37.423Z,1.50
2023-03-26T20:33:11.918Z,1.33
2023-03-26T20:35:40.122Z,1.95
2023-03-26T20:38:09.822Z,1.20
2023-03-26T20:40:37.377Z,1.50
2023-03-26T20:43:04.632Z,1.42
2023-03-26T20:45:31.708Z,1.42
2023-03-26T20:47:59.528Z,1.38
2023-03-26T20:50:27.259Z,1.20
2023-03-26T20:52:54.491Z,1.25
2023-03-26T20:55:22.306Z,1.05
2023-03-26T20:57:49.410Z,1.80
2023-03-26T21:00:22.372Z,1.88
2023-03-26T21:02:53.585Z,1.40
2023-03-26T21:05:24.632Z,1.73
2023-03-26T21:07:53.224Z,1.35
2023-03-26T21:10:20.746Z,1.27
2023-03-26T21:12:58.290Z,1.08
2023-03-26T21:15:26.676Z,1.10
2023-03-26T21:17:55.138Z,1.10
2023-03-26T21:20:22.928Z,1.20
2023-03-26T21:23:04.171Z,1.40
2023-03-26T21:25:54.102Z,0.77
2023-03-26T21:28:32.233Z,1.02
2023-03-26T21:31:07.988Z,1.15
2023-03-26T21:33:34.927Z,0.90
2023-03-26T21:36:02.193Z,1.15
2023-03-26T21:38:32.496Z,1.00
2023-03-26T21:43:27.826Z,0.95
2023-03-26T21:45:55.071Z,1.15
2023-03-26T21:48:22.432Z,1.20
2023-03-26T21:50:49.717Z,0.85
2023-03-26T21:53:16.957Z,1.10
2023-03-26T21:55:51.371Z,1.25
2023-03-26T21:58:41.925Z,1.20
2023-03-26T22:01:18.150Z,1.00
2023-03-26T22:04:20.745Z,0.80
2023-03-26T22:06:57.777Z,1.00
2023-03-26T22:09:35.618Z,0.93
2023-03-26T22:12:03.615Z,1.10
2023-03-26T22:14:30.560Z,1.05
2023-03-26T22:16:57.501Z,1.42
2023-03-26T22:19:24.532Z,1.10
2023-03-26T22:21:51.570Z,1.10
2023-03-26T22:24:18.630Z,1.25
2023-03-26T22:26:45.574Z,1.00
2023-03-26T22:29:13.270Z,1.80
2023-03-26T22:31:40.979Z,1.20
2023-03-26T22:34:08.169Z,1.30
2023-03-26T22:36:35.623Z,1.10
2023-03-26T22:39:04.302Z,1.75
2023-03-26T22:41:31.349Z,1.48
2023-03-26T22:44:09.453Z,1.55
2023-03-26T22:46:49.521Z,1.02
2023-03-26T22:49:17.203Z,1.13
2023-03-26T22:51:44.238Z,1.00
2023-03-26T22:54:11.248Z,1.00
2023-03-26T22:56:38.254Z,1.13
2023-03-26T22:59:05.347Z,0.93
2023-03-26T23:01:32.432Z,1.20
2023-03-26T23:03:59.445Z,1.10
2023-03-26T23:06:26.536Z,1.10
2023-03-26T23:08:54.558Z,1.00
2023-03-26T23:11:22.310Z,1.63
2023-03-26T23:13:49.342Z,1.35
2023-03-26T23:16:16.577Z,1.25
2023-03-26T23:18:44.062Z,1.10
2023-03-26T23:21:18.565Z,1.02
2023-03-26T23:23:45.936Z,1.13
2023-03-26T23:26:13.073Z,1.20
2023-03-26T23:28:41.166Z,1.20
2023-03-26T23:31:09.407Z,0.98
2023-03-26T23:33:37.559Z,1.27
2023-03-26T23:36:09.309Z,1.42
2023-03-26T23:38:44.170Z,0.85
2023-03-26T23:41:15.508Z,1.15
2023-03-26T23:43:53.694Z,1.30
2023-03-26T23:46:23.732Z,0.77
2023-03-26T23:48:51.329Z,1.15
2023-03-26T23:51:20.276Z,1.33
2023-03-26T23:53:47.715Z,1.05
2023-03-26T23:56:15.454Z,1.45
2023-03-26T23:58:43.067Z,1.20
